aviador You're here:

KMIC Decoded Metar

MNPLS/CRYSTAL in MN, USA
Report Time2018-07-15 22:53:00
UTC Time2018-07-15 23:07:25
Flight Rules vfr VFR
Wind320° at 14 kt
W.Decomp.*RWY 32: 14.0 kt HW 0.5 kt LCW
RWY 24: 2.9 kt HW 13.7 kt RCW
W.Rank320° ranks 6
Current wind is above 320° avg. (9.1)
Visibility9999 m
Phenomena:N/A
Clouds:Scattered 040 Hf
Expected CloudBase > 2,800 ft AGL from Temp-Dew spread
CeilingNone
Temp28°C (ISA +15)
Dew Point21°C (66% RH)
Heat Index30.2°C
AAT27.2°C
QNH1014 hPa
Density Alt2,861 ft
Elevation869 ft
Report Wrong Elevation
Raw Report
KMIC 152253Z 32014KT 10SM SCT040 28/21 A2993 RMK AO2 SLP129
T02830211=

Extra information for KMIC:More info

Metar Taf Metar & Taf Last 4 Metars F.Rules Stats Wind Profile Meteogram Temp Stats Airport Information Weather charts Add Link Nearby VenuesMetar ALERT Operation Metar Decoded Social comments

AIRNAV info for KMIC